Time;durP1;ratioP1;P1;durP2;ratioP2;P2;SDS_P1;SDS_P2;PMS_P1;PMS_P2;Temp;Humidity;BMP_temperature;BMP_pressure;BME280_temperature;BME280_humidity;BME280_pressure;Samples;Min_cycle;Max_cycle;Signal;HPM_P1;HPM_P2
2023/03/28 07:58:01;;;;;;;12.98;6.38;;;5.90;92.00;;;;;;5070811;28;20390;-81
2023/03/28 08:00:27;;;;;;;12.40;5.72;;;6.60;91.30;;;;;;5070028;28;20067;-81
2023/03/28 08:02:52;;;;;;;23.63;8.52;;;6.30;88.50;;;;;;5070017;28;20048;-80
2023/03/28 08:05:18;;;;;;;15.27;6.75;;;6.70;88.30;;;;;;5069709;28;20070;-80
2023/03/28 08:07:46;;;;;;;9.60;4.13;;;6.60;87.20;;;;;;5070918;28;20094;-81
2023/03/28 08:10:13;;;;;;;32.35;14.05;;;6.40;83.60;;;;;;5069748;28;20039;-80
2023/03/28 08:12:39;;;;;;;9.00;4.82;;;6.90;85.30;;;;;;5070812;28;20017;-81
2023/03/28 08:15:05;;;;;;;12.38;5.65;;;6.90;81.40;;;;;;5071046;28;20104;-81
2023/03/28 08:17:31;;;;;;;10.73;5.55;;;7.10;79.50;;;;;;5070822;28;20031;-80
2023/03/28 08:19:57;;;;;;;9.25;4.40;;;7.60;79.80;;;;;;5070310;28;20025;-81
2023/03/28 08:22:23;;;;;;;11.77;5.03;;;7.90;77.80;;;;;;5071100;28;20024;-81
2023/03/28 08:24:49;;;;;;;10.25;5.03;;;8.20;79.00;;;;;;5070953;28;20052;-80
2023/03/28 08:27:15;;;;;;;14.93;5.65;;;8.20;77.20;;;;;;5070118;28;20052;-81
2023/03/28 08:29:41;;;;;;;13.23;5.65;;;7.60;75.80;;;;;;5070687;28;20021;-81
2023/03/28 08:32:06;;;;;;;13.05;9.73;;;7.30;75.80;;;;;;5069036;28;20405;-81
2023/03/28 08:34:34;;;;;;;14.65;5.25;;;7.20;77.00;;;;;;5070287;28;20024;-79
2023/03/28 08:37:00;;;;;;;11.10;4.57;;;7.80;76.80;;;;;;5070516;28;20025;-79
2023/03/28 08:39:25;;;;;;;6.68;3.60;;;8.00;72.70;;;;;;5068884;28;20035;-81
2023/03/28 08:42:10;;;;;;;7.75;4.70;;;7.60;69.60;;;;;;5070422;28;20029;-80
2023/03/28 08:45:03;;;;;;;15.85;5.57;;;7.90;69.90;;;;;;5070363;28;20031;-80
2023/03/28 08:47:31;;;;;;;13.55;5.38;;;8.20;67.40;;;;;;5070152;28;20553;-81
2023/03/28 08:50:04;;;;;;;17.48;8.15;;;8.40;66.00;;;;;;5069205;28;20017;-81
2023/03/28 08:52:30;;;;;;;16.52;10.93;;;8.60;65.50;;;;;;5070113;28;20102;-81
2023/03/28 08:55:12;;;;;;;11.13;5.20;;;8.40;65.40;;;;;;5069571;28;20016;-81
2023/03/28 08:57:41;;;;;;;12.75;5.85;;;8.70;64.90;;;;;;5070418;28;20050;-82
2023/03/28 09:00:21;;;;;;;10.45;5.15;;;8.60;62.40;;;;;;5069989;28;20025;-81
2023/03/28 09:02:47;;;;;;;11.88;6.45;;;8.80;62.60;;;;;;5070397;28;20024;-80
2023/03/28 09:05:24;;;;;;;10.80;5.35;;;8.10;61.20;;;;;;5069720;28;20017;-80
2023/03/28 09:07:59;;;;;;;8.85;3.70;;;8.80;61.70;;;;;;5064308;28;20368;-80
2023/03/28 09:10:33;;;;;;;7.97;4.05;;;9.20;59.80;;;;;;5057057;28;20443;-80
2023/03/28 09:13:28;;;;;;;9.02;7.15;;;9.20;61.50;;;;;;5056678;28;20047;-81
2023/03/28 09:16:05;;;;;;;10.05;6.53;;;8.70;61.40;;;;;;5050069;28;20036;-80
2023/03/28 09:19:05;;;;;;;10.57;5.53;;;8.70;63.30;;;;;;5055774;28;20381;-82
2023/03/28 09:21:45;;;;;;;7.40;3.55;;;9.10;59.70;;;;;;5054795;28;20024;-80
2023/03/28 09:24:46;;;;;;;5.68;2.70;;;9.60;58.10;;;;;;5056180;28;20032;-80
2023/03/28 09:27:29;;;;;;;13.83;3.83;;;9.10;58.50;;;;;;5056308;28;20075;-80
2023/03/28 09:30:02;;;;;;;9.75;3.70;;;8.40;57.30;;;;;;5054827;28;20116;-80
2023/03/28 09:32:33;;;;;;;11.52;5.53;;;8.30;59.20;;;;;;5056045;28;20028;-80
2023/03/28 09:34:59;;;;;;;10.82;5.82;;;9.20;57.90;;;;;;5055037;28;20444;-80
2023/03/28 09:37:44;;;;;;;9.88;4.30;;;8.60;57.00;;;;;;5055861;28;20048;-80
2023/03/28 09:40:33;;;;;;;6.65;3.10;;;9.40;57.30;;;;;;5054949;28;20071;-79
2023/03/28 09:43:11;;;;;;;7.22;2.65;;;10.10;54.40;;;;;;5055870;28;20025;-80
2023/03/28 09:45:42;;;;;;;10.00;4.55;;;10.30;51.90;;;;;;5056104;28;20052;-80
2023/03/28 09:48:17;;;;;;;15.85;5.60;;;9.80;52.10;;;;;;5055624;28;20079;-80
2023/03/28 09:50:43;;;;;;;15.02;5.20;;;9.30;54.40;;;;;;5055551;28;20119;-79
2023/03/28 09:53:19;;;;;;;11.60;4.38;;;8.60;55.00;;;;;;5055589;28;20106;-80
2023/03/28 09:55:45;;;;;;;9.90;4.03;;;8.60;55.50;;;;;;5055540;28;20017;-81
2023/03/28 09:58:13;;;;;;;6.53;4.00;;;9.10;55.80;;;;;;5055155;28;20075;-79
2023/03/28 10:00:42;;;;;;;14.15;7.63;;;9.90;55.90;;;;;;5055978;28;20036;-80
2023/03/28 10:03:34;;;;;;;6.50;3.08;;;10.80;55.80;;;;;;5054086;28;20033;-80
2023/03/28 10:06:36;;;;;;;5.70;3.15;;;9.80;52.50;;;;;;5016806;28;20129;-80
2023/03/28 10:09:22;;;;;;;10.48;5.68;;;8.90;53.60;;;;;;5033270;28;20026;-79
2023/03/28 10:11:53;;;;;;;12.88;7.25;;;8.40;54.10;;;;;;5032967;28;20031;-79
2023/03/28 10:14:42;;;;;;;8.38;4.75;;;8.30;55.70;;;;;;5033244;28;20017;-79
2023/03/28 10:17:31;;;;;;;10.50;5.50;;;8.60;55.80;;;;;;5032707;28;20141;-80
2023/03/28 10:20:01;;;;;;;8.32;3.20;;;9.30;54.00;;;;;;5032230;28;20407;-79
2023/03/28 10:22:31;;;;;;;12.68;5.95;;;10.20;52.90;;;;;;5033059;28;20078;-78
2023/03/28 10:24:57;;;;;;;5.82;3.60;;;11.30;52.20;;;;;;5016067;28;20018;-79
2023/03/28 10:27:34;;;;;;;6.82;2.55;;;11.60;48.00;;;;;;5033190;28;20037;-80
2023/03/28 10:30:24;;;;;;;8.73;3.47;;;10.10;47.90;;;;;;5033013;28;20133;-80
2023/03/28 10:33:14;;;;;;;10.30;4.68;;;9.10;50.40;;;;;;5032533;28;20036;-80
2023/03/28 10:35:46;;;;;;;18.48;7.03;;;8.60;52.50;;;;;;5032714;28;20036;-79
2023/03/28 10:38:15;;;;;;;13.85;5.93;;;9.70;51.90;;;;;;5032730;28;20033;-80
2023/03/28 10:40:41;;;;;;;13.50;5.10;;;9.70;51.80;;;;;;5032743;28;20033;-79
2023/03/28 10:43:14;;;;;;;16.90;8.13;;;9.90;48.80;;;;;;5046660;28;20102;-78
2023/03/28 10:45:45;;;;;;;13.07;4.82;;;9.70;48.10;;;;;;5054497;28;20035;-80
2023/03/28 10:48:17;;;;;;;9.13;4.35;;;9.90;50.00;;;;;;5055116;28;20028;-79
2023/03/28 10:50:52;;;;;;;12.55;6.68;;;9.70;49.90;;;;;;5053480;28;20364;-80
2023/03/28 10:53:26;;;;;;;8.80;3.40;;;10.70;49.00;;;;;;5054142;28;20090;-80
2023/03/28 10:56:14;;;;;;;6.68;3.15;;;11.70;46.80;;;;;;5054208;28;20096;-80
2023/03/28 10:58:48;;;;;;;7.75;3.22;;;11.90;45.20;;;;;;5054387;28;20025;-80
2023/03/28 11:01:23;;;;;;;7.47;3.17;;;11.10;43.80;;;;;;5054283;28;20021;-79
2023/03/28 11:04:04;;;;;;;8.50;3.10;;;11.30;45.70;;;;;;5054563;28;20021;-81
2023/03/28 11:06:29;;;;;;;7.88;3.80;;;11.10;43.90;;;;;;5053124;28;20021;-80
2023/03/28 11:09:01;;;;;;;10.40;5.28;;;10.30;46.50;;;;;;5054488;28;20436;-79
2023/03/28 11:11:28;;;;;;;;;;;9.90;49.20;;;;;;5054822;28;20025;-79
2023/03/28 11:14:27;;;;;;;8.32;4.68;;;9.30;48.30;;;;;;5052750;28;19900;-79
2023/03/28 11:17:21;;;;;;;11.55;3.70;;;9.20;48.20;;;;;;5052936;28;20024;-79
2023/03/28 11:19:59;;;;;;;5.75;2.92;;;9.60;48.10;;;;;;5052322;28;20467;-80
2023/03/28 11:22:44;;;;;;;8.15;4.20;;;10.60;47.90;;;;;;5054472;28;20025;-80
2023/03/28 11:25:33;;;;;;;14.38;13.02;;;10.30;47.10;;;;;;5053947;28;20028;-79
2023/03/28 11:28:16;;;;;;;12.90;4.68;;;9.60;46.70;;;;;;5052618;28;20064;-79
2023/03/28 11:30:46;;;;;;;12.07;4.03;;;9.30;47.70;;;;;;5052650;28;20029;-80
2023/03/28 11:33:39;;;;;;;19.20;8.15;;;9.60;47.80;;;;;;5054084;28;20025;-79
2023/03/28 11:36:12;;;;;;;22.77;10.85;;;9.60;49.70;;;;;;5052298;28;20025;-79
2023/03/28 11:38:43;;;;;;;17.15;6.82;;;9.50;50.00;;;;;;5053069;28;20091;-80
2023/03/28 11:41:09;;;;;;;23.13;10.60;;;9.70;50.00;;;;;;5053831;28;20469;-79
2023/03/28 11:43:43;;;;;;;13.75;6.55;;;9.50;49.20;;;;;;5052764;28;20017;-79
2023/03/28 11:46:15;;;;;;;23.35;9.52;;;9.40;49.90;;;;;;5053973;28;20029;-80
2023/03/28 11:48:51;;;;;;;14.07;6.45;;;9.30;50.60;;;;;;5052572;28;20111;-79
2023/03/28 11:51:34;;;;;;;12.57;5.30;;;9.00;51.30;;;;;;5053731;28;20064;-78
2023/03/28 11:54:17;;;;;;;16.85;7.38;;;9.20;50.80;;;;;;5052577;28;20017;-78
2023/03/28 11:56:50;;;;;;;10.75;4.35;;;10.10;49.20;;;;;;5053419;28;20076;-79
2023/03/28 11:59:25;;;;;;;9.65;4.13;;;10.00;45.90;;;;;;5053787;28;20021;-78
2023/03/28 12:02:02;;;;;;;8.52;3.42;;;9.80;46.80;;;;;;5054096;28;20027;-78
2023/03/28 12:04:38;;;;;;;4.03;3.30;;;9.40;46.60;;;;;;5052530;28;20024;-79
2023/03/28 12:07:06;;;;;;;8.40;3.60;;;8.50;45.50;;;;;;5054065;28;20364;-79
2023/03/28 12:10:00;;;;;;;12.18;5.25;;;8.40;46.50;;;;;;5053402;28;20364;-79
2023/03/28 12:12:35;;;;;;;19.35;6.55;;;8.30;46.90;;;;;;5053481;28;20451;-79
2023/03/28 12:15:17;;;;;;;21.80;5.72;;;8.50;48.10;;;;;;5052418;28;20024;-79
2023/03/28 12:17:51;;;;;;;8.88;3.72;;;9.00;48.40;;;;;;5053073;28;20036;-79
2023/03/28 12:20:31;;;;;;;9.52;3.63;;;9.00;50.20;;;;;;5052343;28;20033;-78
2023/03/28 12:23:03;;;;;;;9.55;5.13;;;9.80;47.80;;;;;;5053355;28;20024;-79
2023/03/28 12:25:56;;;;;;;8.45;3.75;;;10.70;45.10;;;;;;5053695;28;20017;-79
2023/03/28 12:28:33;;;;;;;6.65;3.30;;;10.90;43.80;;;;;;5053595;28;20021;-79
2023/03/28 12:31:04;;;;;;;10.95;3.25;;;11.00;43.20;;;;;;5050800;28;20029;-79
2023/03/28 12:33:42;;;;;;;11.05;4.22;;;11.20;43.60;;;;;;5046257;28;20017;-79
2023/03/28 12:36:20;;;;;;;10.15;4.00;;;10.80;44.80;;;;;;5052949;28;20036;-83
2023/03/28 12:39:14;;;;;;;8.27;3.63;;;9.80;44.10;;;;;;5045012;28;20052;-78
2023/03/28 12:41:41;;;;;;;8.95;5.88;;;9.60;47.90;;;;;;5034506;28;20033;-78
2023/03/28 12:44:15;;;;;;;12.27;4.97;;;9.00;49.90;;;;;;5054293;28;20021;-79
2023/03/28 12:46:52;;;;;;;17.00;6.07;;;9.30;49.60;;;;;;5056893;28;20115;-78
2023/03/28 12:49:27;;;;;;;13.80;5.07;;;9.10;49.60;;;;;;5057252;28;20024;-78
2023/03/28 12:51:56;;;;;;;18.70;6.35;;;9.90;48.20;;;;;;5055388;28;20104;-80
2023/03/28 12:54:24;;;;;;;6.35;3.30;;;10.80;45.60;;;;;;5057132;28;20021;-79
2023/03/28 12:57:11;;;;;;;7.85;3.72;;;11.40;44.60;;;;;;5056953;28;20045;-79
2023/03/28 12:59:40;;;;;;;13.93;5.22;;;10.50;43.00;;;;;;5066904;28;20020;-79
2023/03/28 13:02:30;;;;;;;8.68;3.70;;;11.00;43.70;;;;;;5057093;28;20028;-77
2023/03/28 13:05:24;;;;;;;24.67;8.45;;;11.70;42.30;;;;;;5056792;28;20025;-80
2023/03/28 13:08:05;;;;;;;14.88;4.43;;;11.70;42.20;;;;;;5055835;28;20017;-80
2023/03/28 13:10:52;;;;;;;12.52;4.47;;;11.00;39.70;;;;;;5055316;28;20418;-77
2023/03/28 13:13:25;;;;;;;19.33;7.00;;;10.00;39.70;;;;;;5055794;28;20032;-78
2023/03/28 13:16:14;;;;;;;30.23;6.03;;;9.30;43.50;;;;;;5055045;28;20464;-77
2023/03/28 13:19:03;;;;;;;18.52;8.40;;;8.80;47.10;;;;;;5055386;28;20641;-77
2023/03/28 13:21:48;;;;;;;26.33;10.82;;;8.50;48.10;;;;;;5051054;28;20017;-78
2023/03/28 13:24:30;;;;;;;9.88;4.78;;;7.90;47.40;;;;;;5051723;28;20025;-77
2023/03/28 13:27:05;;;;;;;9.82;4.05;;;7.50;57.00;;;;;;5056191;28;20051;-76
2023/03/28 13:29:45;;;;;;;40.25;14.35;;;7.40;62.10;;;;;;5055166;28;20033;-77
2023/03/28 13:32:17;;;;;;;58.38;18.13;;;7.90;63.90;;;;;;5055952;28;20017;-77
2023/03/28 13:34:49;;;;;;;22.75;9.48;;;8.50;62.00;;;;;;5055880;28;20020;-77
2023/03/28 13:37:35;;;;;;;26.98;9.38;;;8.90;61.40;;;;;;5055390;28;20025;-77
2023/03/28 13:40:01;;;;;;;78.85;27.80;;;9.30;61.60;;;;;;5055960;28;20031;-76
2023/03/28 13:42:33;;;;;;;23.90;8.27;;;9.90;59.20;;;;;;5055184;28;20021;-78
2023/03/28 13:45:22;;;;;;;10.50;3.42;;;10.30;57.20;;;;;;5055416;28;20029;-78
2023/03/28 13:47:49;;;;;;;7.18;1.95;;;10.50;51.50;;;;;;5054815;28;20036;-79
2023/03/28 13:50:14;;;;;;;10.23;4.63;;;10.10;50.00;;;;;;5054625;28;20094;-79
2023/03/28 13:52:40;;;;;;;5.00;2.25;;;9.50;50.30;;;;;;5054369;28;20402;-79
2023/03/28 13:55:24;;;;;;;4.65;1.67;;;9.00;50.60;;;;;;5054476;28;20024;-78
2023/03/28 13:57:51;;;;;;;7.75;2.42;;;8.60;52.30;;;;;;5055649;28;20041;-79
2023/03/28 14:00:24;;;;;;;16.75;5.45;;;8.10;53.50;;;;;;5055553;28;20013;-79
2023/03/28 14:02:53;;;;;;;8.13;3.55;;;7.60;58.90;;;;;;5054521;28;20064;-79
2023/03/28 14:05:18;;;;;;;10.80;4.65;;;7.10;66.00;;;;;;5055069;28;20428;-79
2023/03/28 14:07:45;;;;;;;23.77;7.35;;;6.80;66.60;;;;;;5055594;28;20082;-79
2023/03/28 14:10:27;;;;;;;18.85;6.53;;;6.80;68.50;;;;;;5055369;28;20021;-79
2023/03/28 14:12:54;;;;;;;32.97;14.98;;;7.00;64.20;;;;;;5053943;28;20028;-79
2023/03/28 14:15:27;;;;;;;18.50;6.00;;;7.80;64.10;;;;;;5055218;28;20028;-79
2023/03/28 14:17:55;;;;;;;12.98;5.32;;;8.60;59.70;;;;;;5055770;28;20029;-78
2023/03/28 14:20:21;;;;;;;13.25;7.07;;;8.80;57.60;;;;;;5053755;28;20040;-80
2023/03/28 14:22:51;;;;;;;23.90;9.00;;;8.70;58.40;;;;;;5054047;28;20017;-80
2023/03/28 14:25:17;;;;;;;21.02;5.68;;;8.70;59.30;;;;;;5055215;28;20028;-78
2023/03/28 14:27:46;;;;;;;15.40;6.70;;;8.70;58.60;;;;;;5061267;28;20032;-78
2023/03/28 14:30:16;;;;;;;9.43;7.82;;;8.00;61.90;;;;;;5058241;28;20017;-79
2023/03/28 14:32:57;;;;;;;7.80;3.50;;;7.00;67.40;;;;;;5055494;28;20031;-80
2023/03/28 14:35:26;;;;;;;14.43;2.70;;;6.70;71.10;;;;;;5058946;28;20025;-79
2023/03/28 14:37:55;;;;;;;6.68;2.50;;;6.20;74.30;;;;;;5063524;28;20098;-78
2023/03/28 14:40:23;;;;;;;6.82;2.78;;;5.40;76.10;;;;;;5066302;28;20027;-79
2023/03/28 14:43:28;;;;;;;5.63;1.90;;;5.10;78.20;;;;;;5075301;28;20774;-80
2023/03/28 14:45:55;;;;;;;6.20;4.38;;;4.50;90.10;;;;;;5081868;28;20025;-80
2023/03/28 14:54:03;;;;;;;10.98;3.08;;;4.10;99.90;;;;;;4999145;27;1805321;-81
2023/03/28 14:56:30;;;;;;;22.73;7.22;;;4.00;99.90;;;;;;5042967;28;20025;-78
2023/03/28 14:59:02;;;;;;;15.52;5.85;;;4.00;99.90;;;;;;5025001;28;20029;-82
2023/03/28 15:01:29;;;;;;;16.17;5.88;;;4.10;99.90;;;;;;5042538;28;20056;-81
2023/03/28 15:04:07;;;;;;;18.02;6.63;;;4.10;99.90;;;;;;5024871;28;20033;-81
2023/03/28 15:06:34;;;;;;;14.68;6.03;;;4.30;99.90;;;;;;5025157;28;20022;-80
2023/03/28 15:09:10;;;;;;;21.73;9.40;;;4.40;99.90;;;;;;5042116;28;20087;-81
2023/03/28 15:11:39;;;;;;;19.02;9.00;;;4.60;99.90;;;;;;5037816;28;20040;-82
2023/03/28 15:14:22;;;;;;;17.50;7.53;;;5.30;99.90;;;;;;5025102;28;20080;-80
2023/03/28 15:16:48;;;;;;;13.77;6.38;;;;;;;;;;5032686;28;20029;-81
2023/03/28 15:21:27;;;;;;;13.95;4.78;;;6.10;99.90;;;;;;5076046;28;20964;-80
2023/03/28 15:23:59;;;;;;;7.43;3.40;;;6.30;99.90;;;;;;5068183;28;20028;-80
2023/03/28 15:26:32;;;;;;;23.48;8.38;;;6.30;99.90;;;;;;5055949;28;20017;-80
2023/03/28 15:28:59;;;;;;;12.63;5.07;;;6.30;99.40;;;;;;5068645;28;20029;-80
2023/03/28 15:31:26;;;;;;;15.00;6.43;;;6.10;98.80;;;;;;5065382;28;20021;-79
2023/03/28 15:33:53;;;;;;;9.65;3.70;;;6.20;99.80;;;;;;5050820;28;20075;-80
2023/03/28 15:36:24;;;;;;;13.38;5.47;;;6.30;98.50;;;;;;5048811;28;20486;-80
2023/03/28 15:38:58;;;;;;;20.50;8.10;;;6.30;98.70;;;;;;5050618;28;20021;-79
2023/03/28 15:41:45;;;;;;;23.75;8.63;;;6.20;99.10;;;;;;5058283;28;20475;-80
2023/03/28 15:44:31;;;;;;;23.63;8.55;;;6.30;98.80;;;;;;5050833;28;20029;-79
2023/03/28 15:47:03;;;;;;;32.85;10.90;;;6.30;97.90;;;;;;5050997;28;20025;-79
2023/03/28 15:49:34;;;;;;;19.65;6.78;;;6.20;96.70;;;;;;5051381;28;20036;-80
2023/03/28 15:52:03;;;;;;;35.85;11.35;;;6.00;94.00;;;;;;5049765;28;20029;-80
2023/03/28 16:01:31;;;;;;;31.30;10.73;;;5.80;94.50;;;;;;4991857;28;20787;-80
2023/03/28 16:04:24;;;;;;;42.85;14.52;;;5.80;93.20;;;;;;4991583;28;20053;-80
2023/03/28 16:07:12;;;;;;;36.17;13.10;;;6.00;93.00;;;;;;4992200;28;20042;-80
2023/03/28 16:09:42;;;;;;;64.22;25.77;;;6.20;92.40;;;;;;4991679;28;20022;-80
2023/03/28 16:12:11;;;;;;;36.78;16.30;;;6.30;91.90;;;;;;4990471;28;20389;-80
2023/03/28 16:14:42;;;;;;;30.40;11.52;;;6.60;91.80;;;;;;4992148;28;20157;-80
2023/03/28 16:17:07;;;;;;;24.92;11.32;;;6.90;91.20;;;;;;4990610;28;20023;-80
2023/03/28 16:19:35;;;;;;;27.58;11.55;;;7.10;90.30;;;;;;4991510;28;20034;-80
2023/03/28 16:22:01;;;;;;;37.17;14.95;;;7.40;89.00;;;;;;4991764;28;20029;-80
2023/03/28 16:24:26;;;;;;;43.92;17.17;;;7.40;88.90;;;;;;4991966;28;20027;-80
2023/03/28 16:26:52;;;;;;;32.55;12.20;;;7.60;87.50;;;;;;4991097;28;20026;-80
2023/03/28 16:29:19;;;;;;;75.75;27.42;;;7.80;86.30;;;;;;4990226;28;20030;-80
2023/03/28 16:31:45;;;;;;;134.23;46.22;;;7.70;85.40;;;;;;4991238;28;20022;-79
2023/03/28 16:34:11;;;;;;;77.93;27.65;;;7.70;85.40;;;;;;4991487;28;20019;-80
2023/03/28 16:36:37;;;;;;;281.58;99.07;;;7.70;84.90;;;;;;4990215;28;20113;-80
2023/03/28 16:39:05;;;;;;;167.40;73.65;;;7.50;85.90;;;;;;4990735;28;20402;-80
2023/03/28 16:41:31;;;;;;;56.08;24.65;;;7.30;87.50;;;;;;4990404;28;20027;-80
2023/03/28 16:43:56;;;;;;;36.97;14.98;;;6.90;89.90;;;;;;4991399;28;20022;-80
2023/03/28 16:46:22;;;;;;;28.92;13.60;;;6.60;90.80;;;;;;4991284;28;20022;-80
2023/03/28 16:48:48;;;;;;;38.45;15.50;;;6.40;91.80;;;;;;4991308;28;20361;-79
2023/03/28 16:51:13;;;;;;;48.05;19.77;;;6.00;93.20;;;;;;4991182;28;20026;-80
2023/03/28 16:53:41;;;;;;;42.83;18.20;;;5.80;94.60;;;;;;4990766;28;20347;-81
2023/03/28 16:56:10;;;;;;;59.03;21.85;;;5.70;96.10;;;;;;4990062;28;20023;-81
2023/03/28 16:58:42;;;;;;;54.60;21.27;;;5.70;97.40;;;;;;4990713;28;20080;-80
2023/03/28 17:01:12;;;;;;;53.00;20.65;;;5.60;98.30;;;;;;5005641;28;20046;-80
2023/03/28 17:03:38;;;;;;;69.80;27.60;;;5.50;98.80;;;;;;5009243;28;20030;-80
2023/03/28 17:06:06;;;;;;;83.13;33.60;;;5.40;98.80;;;;;;5008922;28;20036;-80
2023/03/28 17:08:33;;;;;;;52.22;23.17;;;5.40;99.00;;;;;;5008939;28;20029;-80
2023/03/28 17:10:59;;;;;;;54.05;24.20;;;5.30;97.80;;;;;;5006557;28;20054;-81
2023/03/28 17:13:26;;;;;;;45.97;20.50;;;5.30;98.00;;;;;;4996511;28;20022;-81
2023/03/28 17:15:53;;;;;;;40.00;16.55;;;5.20;97.50;;;;;;4995660;28;20030;-81
2023/03/28 17:18:19;;;;;;;48.97;17.55;;;5.20;97.50;;;;;;4995879;28;20034;-82
2023/03/28 17:20:46;;;;;;;39.70;15.85;;;5.10;98.60;;;;;;4995458;28;20041;-81
2023/03/28 17:23:12;;;;;;;39.30;17.38;;;5.00;99.90;;;;;;4995107;28;20030;-81
2023/03/28 17:25:38;;;;;;;49.50;20.52;;;4.90;99.90;;;;;;4996133;28;20022;-81
2023/03/28 17:28:04;;;;;;;36.63;14.90;;;4.80;99.90;;;;;;4995631;28;20027;-82
2023/03/28 17:30:30;;;;;;;42.60;17.30;;;4.70;99.90;;;;;;4995768;28;20465;-81
2023/03/28 17:32:56;;;;;;;52.40;21.33;;;4.70;99.90;;;;;;4995638;28;20030;-81
2023/03/28 17:35:22;;;;;;;51.58;22.13;;;4.60;99.90;;;;;;4995453;28;20033;-81
2023/03/28 17:37:48;;;;;;;62.08;26.63;;;4.60;99.90;;;;;;4993787;28;20023;-80
2023/03/28 17:40:14;;;;;;;50.70;20.45;;;4.50;99.90;;;;;;4994821;28;20033;-81
2023/03/28 17:42:40;;;;;;;60.58;25.23;;;4.40;99.90;;;;;;4995223;28;20061;-80
2023/03/28 17:45:07;;;;;;;55.05;23.10;;;4.40;99.90;;;;;;4996204;28;20417;-81
2023/03/28 17:47:33;;;;;;;41.88;16.80;;;4.40;99.90;;;;;;4994928;28;20142;-80
2023/03/28 17:49:59;;;;;;;32.22;14.27;;;4.20;99.90;;;;;;5000916;28;20377;-80
2023/03/28 17:52:28;;;;;;;37.70;16.88;;;4.20;99.90;;;;;;5001531;28;20019;-85
2023/03/28 17:54:57;;;;;;;98.43;39.13;;;4.10;99.90;;;;;;4994205;28;20022;-80
2023/03/28 17:57:23;;;;;;;63.13;24.48;;;4.10;99.90;;;;;;4994091;28;20593;-80
2023/03/28 17:59:49;;;;;;;114.75;47.70;;;4.10;99.90;;;;;;4995198;28;20609;-80
2023/03/28 18:02:15;;;;;;;63.53;27.38;;;4.00;99.90;;;;;;4994484;28;20108;-80
2023/03/28 18:04:42;;;;;;;67.85;28.38;;;4.00;99.90;;;;;;4994784;28;20069;-81
2023/03/28 18:07:08;;;;;;;68.25;24.25;;;4.10;99.90;;;;;;4994790;28;20030;-82
2023/03/28 18:09:35;;;;;;;51.75;18.83;;;4.10;99.90;;;;;;4994903;28;20046;-80
2023/03/28 18:12:01;;;;;;;55.95;21.92;;;4.10;99.90;;;;;;4994907;28;20368;-81
2023/03/28 18:14:27;;;;;;;54.22;25.83;;;4.00;99.90;;;;;;4995378;28;20018;-81
2023/03/28 18:16:55;;;;;;;90.35;40.95;;;4.00;99.90;;;;;;4993350;28;20027;-82
2023/03/28 18:19:21;;;;;;;65.80;28.60;;;4.00;99.90;;;;;;4994570;28;20030;-82
2023/03/28 18:21:48;;;;;;;75.85;32.60;;;4.00;99.90;;;;;;4995179;28;20065;-81
2023/03/28 18:24:14;;;;;;;54.97;25.45;;;4.00;99.90;;;;;;4992974;28;20054;-81
2023/03/28 18:26:39;;;;;;;53.38;22.38;;;4.00;99.90;;;;;;4994790;28;20157;-82
2023/03/28 18:29:05;;;;;;;72.70;31.00;;;4.00;99.90;;;;;;4994828;28;20493;-82
2023/03/28 18:31:32;;;;;;;68.28;30.77;;;4.00;99.90;;;;;;4993476;28;20065;-80
2023/03/28 18:33:58;;;;;;;73.53;29.10;;;3.90;99.90;;;;;;4992866;28;20483;-81
2023/03/28 18:36:24;;;;;;;56.00;22.73;;;3.90;99.90;;;;;;4999235;28;20101;-82
2023/03/28 18:38:50;;;;;;;58.88;25.90;;;3.90;99.90;;;;;;5001048;28;20023;-82
2023/03/28 18:41:16;;;;;;;56.97;24.38;;;3.90;99.90;;;;;;4994681;28;20056;-82
2023/03/28 18:43:43;;;;;;;47.92;19.30;;;3.90;99.90;;;;;;5012852;28;20449;-82
2023/03/28 18:46:11;;;;;;;35.28;15.05;;;3.90;99.90;;;;;;5012950;28;20080;-83
2023/03/28 18:48:38;;;;;;;28.10;13.07;;;3.90;99.90;;;;;;5013060;28;20121;-83
2023/03/28 18:51:07;;;;;;;34.75;16.00;;;3.90;99.90;;;;;;5014568;28;20026;-82
2023/03/28 18:53:34;;;;;;;35.90;15.18;;;3.90;99.90;;;;;;4994919;28;20023;-82
2023/03/28 18:56:00;;;;;;;52.03;20.35;;;3.90;99.90;;;;;;4995069;28;20030;-82
2023/03/28 18:58:25;;;;;;;63.83;25.10;;;3.90;99.90;;;;;;4994499;28;20026;-82
2023/03/28 19:00:57;;;;;;;27.60;12.82;;;4.00;99.90;;;;;;4993819;28;20392;-83
2023/03/28 19:03:25;;;;;;;;;;;4.00;99.90;;;;;;4995314;28;20037;-81
2023/03/28 19:05:59;;;;;;;40.38;17.33;;;4.10;99.90;;;;;;4994149;28;20024;-81
2023/03/28 19:08:25;;;;;;;34.97;15.73;;;4.10;99.90;;;;;;4993333;28;20026;-81
2023/03/28 19:10:52;;;;;;;38.03;17.05;;;4.10;99.90;;;;;;4994306;28;20105;-80
2023/03/28 19:13:18;;;;;;;38.17;18.08;;;4.10;99.90;;;;;;4994443;28;20018;-81
2023/03/28 19:15:44;;;;;;;37.97;17.02;;;4.20;99.90;;;;;;4992378;28;20152;-80
2023/03/28 19:18:10;;;;;;;39.35;16.38;;;4.10;99.90;;;;;;4987401;28;20101;-79
2023/03/28 19:20:37;;;;;;;42.88;15.70;;;4.10;99.90;;;;;;4991860;28;20121;-79
2023/03/28 19:23:03;;;;;;;35.35;14.45;;;4.10;99.90;;;;;;4993925;28;20030;-79
2023/03/28 19:25:28;;;;;;;34.40;15.68;;;4.10;99.90;;;;;;4993879;28;20034;-79
2023/03/28 19:27:54;;;;;;;39.30;17.05;;;4.10;99.90;;;;;;4993239;28;20027;-79
2023/03/28 19:30:20;;;;;;;69.93;26.67;;;4.10;99.90;;;;;;4992442;28;20456;-79
2023/03/28 19:32:46;;;;;;;65.40;25.60;;;4.10;99.90;;;;;;4993680;28;20030;-78
2023/03/28 19:35:12;;;;;;;57.85;22.13;;;4.10;99.90;;;;;;4992868;28;20022;-82
2023/03/28 19:37:37;;;;;;;53.53;20.48;;;4.20;99.90;;;;;;4992540;28;20460;-85
2023/03/28 19:40:08;;;;;;;43.13;19.85;;;4.20;99.90;;;;;;4992697;28;20065;-82
2023/03/28 19:42:34;;;;;;;26.08;11.00;;;4.30;99.90;;;;;;4992180;28;20531;-80
2023/03/28 19:45:00;;;;;;;57.65;21.65;;;4.30;99.90;;;;;;4992607;28;20050;-80
2023/03/28 19:47:26;;;;;;;66.28;24.70;;;4.30;99.90;;;;;;4992839;28;20093;-79
2023/03/28 19:49:52;;;;;;;69.78;23.33;;;4.40;99.90;;;;;;4993534;28;20026;-81
2023/03/28 19:52:18;;;;;;;61.72;22.33;;;4.30;99.90;;;;;;4993583;28;20361;-82
2023/03/28 19:54:43;;;;;;;55.75;20.85;;;4.30;99.90;;;;;;4993402;28;20105;-79
2023/03/28 19:57:12;;;;;;;43.47;16.23;;;4.30;99.90;;;;;;4993945;28;20027;-80
2023/03/28 19:59:38;;;;;;;48.03;17.77;;;4.30;99.90;;;;;;4993534;28;20104;-79
2023/03/28 20:02:04;;;;;;;47.95;17.48;;;4.30;99.90;;;;;;4993750;28;20393;-80
2023/03/28 20:04:29;;;;;;;46.90;18.13;;;4.30;99.90;;;;;;4992549;28;20022;-80
2023/03/28 20:06:55;;;;;;;41.42;17.77;;;4.20;99.90;;;;;;4993238;28;20041;-80
2023/03/28 20:09:22;;;;;;;46.80;17.98;;;4.20;99.90;;;;;;4992237;28;20109;-80
2023/03/28 20:11:48;;;;;;;42.72;16.48;;;4.20;99.90;;;;;;4993031;28;20357;-80
2023/03/28 20:14:16;;;;;;;36.58;14.68;;;4.10;99.90;;;;;;4993180;28;20026;-81
2023/03/28 20:16:42;;;;;;;45.30;15.68;;;4.00;99.90;;;;;;4992212;28;20014;-82
2023/03/28 20:19:08;;;;;;;40.13;14.75;;;4.00;99.90;;;;;;4991958;28;20033;-81
2023/03/28 20:21:34;;;;;;;38.78;14.50;;;3.90;99.90;;;;;;4993501;28;20042;-81
2023/03/28 20:23:59;;;;;;;37.13;14.55;;;3.80;99.90;;;;;;4992734;28;20052;-82
2023/03/28 20:26:25;;;;;;;32.28;13.80;;;3.80;99.90;;;;;;4992315;28;20029;-81
2023/03/28 20:28:58;;;;;;;39.92;15.15;;;3.70;99.90;;;;;;4992131;28;20453;-82
2023/03/28 20:31:25;;;;;;;45.83;15.60;;;3.70;99.90;;;;;;4991395;28;20029;-82
2023/03/28 20:33:51;;;;;;;40.83;16.25;;;3.70;99.90;;;;;;4993291;28;20057;-81
2023/03/28 20:36:17;;;;;;;49.28;19.95;;;3.60;99.90;;;;;;4992055;28;20027;-82
2023/03/28 20:38:43;;;;;;;57.03;19.60;;;3.50;99.90;;;;;;4991228;28;20028;-81
2023/03/28 20:41:13;;;;;;;56.53;21.67;;;3.50;99.90;;;;;;4992416;28;20041;-81
2023/03/28 20:43:45;;;;;;;48.05;19.05;;;3.40;99.90;;;;;;4999886;28;20034;-81
2023/03/28 20:46:11;;;;;;;54.47;18.80;;;3.40;99.90;;;;;;4994932;28;20496;-81
2023/03/28 20:48:37;;;;;;;43.92;16.60;;;3.40;99.90;;;;;;4996609;28;20022;-80
2023/03/28 20:51:05;;;;;;;40.85;16.35;;;3.30;99.90;;;;;;5007406;28;20030;-81
2023/03/28 20:53:32;;;;;;;49.15;19.48;;;3.30;99.90;;;;;;5002431;28;20052;-81
2023/03/28 20:56:00;;;;;;;46.60;19.52;;;3.30;99.90;;;;;;5002181;28;20053;-80
2023/03/28 20:58:28;;;;;;;46.70;20.45;;;3.20;99.90;;;;;;5002337;28;20368;-79
2023/03/28 21:00:56;;;;;;;54.90;21.70;;;3.30;99.90;;;;;;4993601;28;20038;-80
2023/03/28 21:03:21;;;;;;;54.20;21.40;;;3.30;99.90;;;;;;4991451;28;20033;-82
2023/03/28 21:05:50;;;;;;;56.05;19.52;;;3.30;99.90;;;;;;5003871;28;20022;-82
2023/03/28 21:08:18;;;;;;;46.13;17.42;;;3.30;99.90;;;;;;5001458;28;20023;-83
2023/03/28 21:10:52;;;;;;;45.35;18.38;;;3.30;99.90;;;;;;5005585;28;20057;-84
2023/03/28 21:13:18;;;;;;;49.28;20.73;;;3.20;99.90;;;;;;5001207;28;20042;-82
2023/03/28 21:15:43;;;;;;;48.13;22.27;;;3.20;99.90;;;;;;4999538;28;20038;-84
2023/03/28 21:18:11;;;;;;;28.10;14.10;;;3.10;99.90;;;;;;5004294;28;20148;-83